createdAt,value
2018-03-18T00:00:11.761Z,94.40
2018-03-18T00:02:49.046Z,94.50
2018-03-18T00:05:22.660Z,94.40
2018-03-18T00:07:56.381Z,94.30
2018-03-18T00:10:29.852Z,94.30
2018-03-18T00:13:03.865Z,94.30
2018-03-18T00:15:37.263Z,94.30
2018-03-18T00:18:10.864Z,94.30
2018-03-18T00:20:44.462Z,93.40
2018-03-18T00:23:17.962Z,94.10
2018-03-18T00:25:51.972Z,94.20
2018-03-18T00:28:26.291Z,94.00
2018-03-18T00:31:00.213Z,94.00
2018-03-18T00:33:33.803Z,94.00
2018-03-18T00:36:08.022Z,93.90
2018-03-18T00:38:41.420Z,93.70
2018-03-18T00:41:15.326Z,93.70
2018-03-18T00:43:48.728Z,93.60
2018-03-18T00:46:22.226Z,93.30
2018-03-18T00:48:56.655Z,93.20
2018-03-18T00:51:42.327Z,93.20
2018-03-18T00:54:16.133Z,92.90
2018-03-18T00:56:49.733Z,92.90
2018-03-18T00:59:23.538Z,92.80
2018-03-18T01:01:56.937Z,92.90
2018-03-18T01:04:31.048Z,92.60
2018-03-18T01:07:04.649Z,92.70
2018-03-18T01:09:38.050Z,92.90
2018-03-18T01:12:11.236Z,92.90
2018-03-18T01:14:45.046Z,92.80
2018-03-18T01:17:19.054Z,92.80
2018-03-18T01:19:52.658Z,93.00
2018-03-18T01:22:26.670Z,92.70
2018-03-18T01:25:00.888Z,92.50
2018-03-18T01:27:34.488Z,92.20
2018-03-18T01:30:08.088Z,92.10
2018-03-18T01:32:42.313Z,92.60
2018-03-18T01:35:16.113Z,93.20
2018-03-18T01:37:50.126Z,93.40
2018-03-18T01:40:24.849Z,93.40
2018-03-18T01:42:58.041Z,93.40
2018-03-18T01:45:32.169Z,93.50
2018-03-18T01:48:05.960Z,93.40
2018-03-18T01:50:39.563Z,93.40
2018-03-18T01:53:20.963Z,93.70
2018-03-18T01:55:54.755Z,94.00
2018-03-18T01:58:28.352Z,93.90
2018-03-18T02:01:01.551Z,94.10
2018-03-18T02:03:36.992Z,94.60
2018-03-18T02:06:10.225Z,94.60
2018-03-18T02:08:43.998Z,94.40
2018-03-18T02:11:18.311Z,94.20
2018-03-18T02:13:51.710Z,94.20
2018-03-18T02:16:25.120Z,93.80
2018-03-18T02:18:58.502Z,93.80
2018-03-18T02:21:33.226Z,94.00
2018-03-18T02:24:06.627Z,94.00
2018-03-18T02:26:40.634Z,93.90
2018-03-18T02:29:14.240Z,93.90
2018-03-18T02:31:47.840Z,93.90
2018-03-18T02:34:22.056Z,93.00
2018-03-18T02:36:56.071Z,94.00
2018-03-18T02:39:29.870Z,94.10
2018-03-18T02:42:03.677Z,94.20
2018-03-18T02:44:38.916Z,94.30
2018-03-18T02:47:12.722Z,94.30
2018-03-18T02:49:47.145Z,94.00
2018-03-18T02:52:21.363Z,93.90
2018-03-18T02:54:55.369Z,93.90
2018-03-18T02:57:29.170Z,93.90
2018-03-18T03:00:03.286Z,93.70
2018-03-18T03:02:36.686Z,93.80
2018-03-18T03:05:10.489Z,92.40
2018-03-18T03:07:43.890Z,93.70
2018-03-18T03:10:17.288Z,93.60
2018-03-18T03:12:51.105Z,93.50
2018-03-18T03:15:24.493Z,93.40
2018-03-18T03:17:58.608Z,93.60
2018-03-18T03:20:32.202Z,93.60
2018-03-18T03:23:05.805Z,93.70
2018-03-18T03:25:39.405Z,93.90
2018-03-18T03:28:12.808Z,94.10
2018-03-18T03:30:47.227Z,93.60
2018-03-18T03:33:22.259Z,93.50
2018-03-18T03:35:56.172Z,93.50
2018-03-18T03:38:29.972Z,93.50
2018-03-18T03:41:03.983Z,93.50
2018-03-18T03:43:38.608Z,93.30
2018-03-18T03:46:13.848Z,93.20
2018-03-18T03:48:48.064Z,93.20
2018-03-18T03:51:22.078Z,92.90
2018-03-18T03:53:56.086Z,93.00
2018-03-18T03:56:30.302Z,93.00
2018-03-18T03:59:04.009Z,92.70
2018-03-18T04:01:37.305Z,92.50
2018-03-18T04:04:11.311Z,92.50
2018-03-18T04:06:44.913Z,92.50
2018-03-18T04:09:19.743Z,92.70
2018-03-18T04:11:53.754Z,92.70
2018-03-18T04:14:27.845Z,93.10
2018-03-18T04:17:02.295Z,93.00
2018-03-18T04:19:36.306Z,92.80
2018-03-18T04:22:10.211Z,93.10
2018-03-18T04:24:44.532Z,93.00
2018-03-18T04:27:18.140Z,93.20
2018-03-18T04:29:51.728Z,93.60
2018-03-18T04:32:25.135Z,93.50
2018-03-18T04:35:00.373Z,93.60
2018-03-18T04:37:34.276Z,93.60
2018-03-18T04:40:08.450Z,93.60
2018-03-18T04:42:42.608Z,94.30
2018-03-18T04:45:17.230Z,93.70
2018-03-18T04:47:51.347Z,93.70
2018-03-18T04:50:25.976Z,93.90
2018-03-18T04:53:00.292Z,93.80
2018-03-18T04:55:33.899Z,93.50
2018-03-18T04:58:07.497Z,93.00
2018-03-18T05:00:41.815Z,92.80
2018-03-18T05:03:16.433Z,92.80
2018-03-18T05:05:50.862Z,92.80
2018-03-18T05:08:25.073Z,93.10
2018-03-18T05:10:58.876Z,93.30
2018-03-18T05:13:33.111Z,92.80
2018-03-18T05:16:07.288Z,92.90
2018-03-18T05:18:41.124Z,92.90
2018-03-18T05:21:16.767Z,92.50
2018-03-18T05:23:51.200Z,92.50
2018-03-18T05:26:25.517Z,92.30
2018-03-18T05:28:59.727Z,92.20
2018-03-18T05:31:33.924Z,92.50
2018-03-18T05:34:08.124Z,92.40
2018-03-18T05:36:41.651Z,92.50
2018-03-18T05:39:18.328Z,92.50
2018-03-18T05:41:51.723Z,92.50
2018-03-18T05:44:25.329Z,92.70
2018-03-18T05:47:01.089Z,92.80
2018-03-18T05:49:35.495Z,92.90
2018-03-18T05:52:09.307Z,92.80
2018-03-18T05:54:50.689Z,92.80
2018-03-18T05:57:24.290Z,92.40
2018-03-18T05:59:57.991Z,91.90
2018-03-18T06:02:31.611Z,92.10
2018-03-18T06:05:04.887Z,91.70
2018-03-18T06:07:38.900Z,91.70
2018-03-18T06:10:12.611Z,91.60
2018-03-18T06:12:46.411Z,91.50
2018-03-18T06:15:21.033Z,91.70
2018-03-18T06:17:54.848Z,91.70
2018-03-18T06:20:28.440Z,91.90
2018-03-18T06:23:02.558Z,91.80
2018-03-18T06:25:36.360Z,91.30
2018-03-18T06:28:10.166Z,91.20
2018-03-18T06:30:43.973Z,91.10
2018-03-18T06:33:17.778Z,91.20
2018-03-18T06:35:51.584Z,91.10
2018-03-18T06:38:25.399Z,91.60
2018-03-18T06:40:59.407Z,90.70
2018-03-18T06:43:33.004Z,90.80
2018-03-18T06:46:06.608Z,90.70
2018-03-18T06:48:40.821Z,90.90
2018-03-18T06:51:15.448Z,90.90
2018-03-18T06:53:49.255Z,90.90
2018-03-18T06:56:22.861Z,90.60
2018-03-18T06:58:56.458Z,90.40
2018-03-18T07:01:30.267Z,90.40
2018-03-18T07:04:03.866Z,90.70
2018-03-18T07:06:37.877Z,90.80
2018-03-18T07:09:11.889Z,90.70
2018-03-18T07:11:45.899Z,90.60
2018-03-18T07:14:20.120Z,90.30
2018-03-18T07:16:53.510Z,89.90
2018-03-18T07:19:27.110Z,86.30
2018-03-18T07:22:00.716Z,81.50
2018-03-18T07:24:34.315Z,76.40
2018-03-18T07:27:09.966Z,71.40
2018-03-18T07:29:44.179Z,69.50
2018-03-18T07:32:17.780Z,67.60
2018-03-18T07:34:51.386Z,68.90
2018-03-18T07:37:24.985Z,68.70
2018-03-18T07:39:59.096Z,62.80
2018-03-18T07:42:33.108Z,61.60
2018-03-18T07:45:07.737Z,65.60
2018-03-18T07:47:41.338Z,68.00
2018-03-18T07:50:14.737Z,69.80
2018-03-18T07:52:48.541Z,67.10
2018-03-18T07:55:22.547Z,69.00
2018-03-18T07:57:56.155Z,69.10
2018-03-18T08:00:29.754Z,67.70
2018-03-18T08:03:03.356Z,65.80
2018-03-18T08:05:37.171Z,66.10
2018-03-18T08:08:11.170Z,63.50
2018-03-18T08:10:44.774Z,63.50
2018-03-18T08:13:18.987Z,64.60
2018-03-18T08:15:52.795Z,65.00
2018-03-18T08:18:26.804Z,65.20
2018-03-18T08:21:00.515Z,66.60
2018-03-18T08:23:33.906Z,63.20
2018-03-18T08:26:07.508Z,64.10
2018-03-18T08:28:41.722Z,66.70
2018-03-18T08:31:16.145Z,68.20
2018-03-18T08:33:49.542Z,69.60
2018-03-18T08:36:23.347Z,72.30
2018-03-18T08:38:57.770Z,73.50
2018-03-18T08:41:32.803Z,72.50
2018-03-18T08:44:06.608Z,72.40
2018-03-18T08:46:40.212Z,73.30
2018-03-18T08:49:13.825Z,73.00
2018-03-18T08:51:47.618Z,73.10
2018-03-18T08:54:21.224Z,74.10
2018-03-18T08:56:55.029Z,71.70
2018-03-18T08:59:28.628Z,72.00
2018-03-18T09:02:03.169Z,71.90
2018-03-18T09:04:37.384Z,73.30
2018-03-18T09:07:12.202Z,74.40
2018-03-18T09:09:45.829Z,74.40
2018-03-18T09:12:19.816Z,74.30
2018-03-18T09:14:54.846Z,73.90
2018-03-18T09:17:29.476Z,74.50
2018-03-18T09:20:03.992Z,73.80
2018-03-18T09:22:37.389Z,73.80
2018-03-18T09:25:11.203Z,74.40
2018-03-18T09:27:44.726Z,73.60
2018-03-18T09:30:18.407Z,74.60
2018-03-18T09:32:52.619Z,74.60
2018-03-18T09:35:26.439Z,75.00
2018-03-18T09:38:00.637Z,74.40
2018-03-18T09:40:34.238Z,74.30
2018-03-18T09:43:08.044Z,74.50
2018-03-18T09:45:41.757Z,74.20
2018-03-18T09:48:15.769Z,73.30
2018-03-18T09:50:49.770Z,72.90
2018-03-18T09:53:23.579Z,72.90
2018-03-18T09:55:57.384Z,71.90
2018-03-18T09:58:30.985Z,70.60
2018-03-18T10:01:04.589Z,69.70
2018-03-18T10:03:37.982Z,68.40
2018-03-18T10:06:12.710Z,68.10
2018-03-18T10:08:47.134Z,68.90
2018-03-18T10:11:20.938Z,68.90
2018-03-18T10:13:57.210Z,68.80
2018-03-18T10:16:31.416Z,67.70
2018-03-18T10:19:05.018Z,68.30
2018-03-18T10:21:39.648Z,66.80
2018-03-18T10:24:13.043Z,67.50
2018-03-18T10:26:47.465Z,68.50
2018-03-18T10:29:21.271Z,68.90
2018-03-18T10:31:54.873Z,67.30
2018-03-18T10:34:28.472Z,66.80
2018-03-18T10:37:02.894Z,68.00
2018-03-18T10:39:37.323Z,67.90
2018-03-18T10:42:10.916Z,67.40
2018-03-18T10:44:44.824Z,67.70
2018-03-18T10:47:18.426Z,65.90
2018-03-18T10:49:52.232Z,65.70
2018-03-18T10:52:26.446Z,65.20
2018-03-18T10:54:59.842Z,65.70
2018-03-18T10:57:33.855Z,64.90
2018-03-18T11:00:08.074Z,66.00
2018-03-18T11:02:43.106Z,64.90
2018-03-18T11:05:16.705Z,65.10
2018-03-18T11:07:51.260Z,63.80
2018-03-18T11:10:25.139Z,62.40
2018-03-18T11:12:58.740Z,62.60
2018-03-18T11:15:32.752Z,61.70
2018-03-18T11:18:06.760Z,61.70
2018-03-18T11:20:40.063Z,60.80
2018-03-18T11:23:14.170Z,61.20
2018-03-18T11:25:47.770Z,61.40
2018-03-18T11:28:21.580Z,61.20
2018-03-18T11:30:54.974Z,61.60
2018-03-18T11:33:28.782Z,61.10
2018-03-18T11:36:02.589Z,62.10
2018-03-18T11:38:36.006Z,58.90
2018-03-18T11:41:09.629Z,59.20
2018-03-18T11:43:43.389Z,60.30
2018-03-18T11:46:17.429Z,58.70
2018-03-18T11:48:51.212Z,57.70
2018-03-18T11:51:24.819Z,58.30
2018-03-18T11:53:58.206Z,58.30
2018-03-18T11:56:31.807Z,57.00
2018-03-18T11:59:05.203Z,55.10
2018-03-18T12:01:39.218Z,55.00
2018-03-18T12:04:13.640Z,52.00
2018-03-18T12:06:47.233Z,52.10
2018-03-18T12:09:21.456Z,51.50
2018-03-18T12:11:55.880Z,52.10
2018-03-18T12:14:30.096Z,51.30
2018-03-18T12:17:03.926Z,49.10
2018-03-18T12:19:37.498Z,46.50
2018-03-18T12:22:10.895Z,44.00
2018-03-18T12:24:44.905Z,40.20
2018-03-18T12:27:18.720Z,37.80
2018-03-18T12:29:52.418Z,36.30
2018-03-18T12:32:26.119Z,34.20
2018-03-18T12:34:59.945Z,35.10
2018-03-18T12:37:33.959Z,37.50
2018-03-18T12:40:20.466Z,40.70
2018-03-18T12:43:06.743Z,44.30
2018-03-18T12:45:40.966Z,44.20
2018-03-18T12:48:15.232Z,46.60
2018-03-18T12:50:48.789Z,48.10
2018-03-18T12:53:22.374Z,51.30
2018-03-18T12:55:56.079Z,52.70
2018-03-18T12:58:29.477Z,52.80
2018-03-18T13:01:03.080Z,51.90
2018-03-18T13:03:36.883Z,51.80
2018-03-18T13:06:10.895Z,52.60
2018-03-18T13:08:45.112Z,54.10
2018-03-18T13:11:19.122Z,53.50
2018-03-18T13:13:52.780Z,51.30
2018-03-18T13:16:26.640Z,50.00
2018-03-18T13:19:01.056Z,51.40
2018-03-18T13:21:35.278Z,51.30
2018-03-18T13:24:09.392Z,53.90
2018-03-18T13:26:43.802Z,56.60
2018-03-18T13:29:17.818Z,56.50
2018-03-18T13:31:52.857Z,61.80
2018-03-18T13:34:26.351Z,61.80
2018-03-18T13:37:00.433Z,55.60
2018-03-18T13:39:34.377Z,55.40
2018-03-18T13:42:07.981Z,52.50
2018-03-18T13:44:41.784Z,51.40
2018-03-18T13:47:15.588Z,49.90
2018-03-18T13:49:49.287Z,50.50
2018-03-18T13:52:22.686Z,49.00
2018-03-18T13:54:56.182Z,47.90
2018-03-18T13:57:29.997Z,46.80
2018-03-18T14:00:03.851Z,48.10
2018-03-18T14:02:37.397Z,48.50
2018-03-18T14:05:11.211Z,49.30
2018-03-18T14:07:44.805Z,49.30
2018-03-18T14:10:18.208Z,48.50
2018-03-18T14:12:52.214Z,48.50
2018-03-18T14:15:26.114Z,49.70
2018-03-18T14:17:59.724Z,48.90
2018-03-18T14:20:33.938Z,49.40
2018-03-18T14:23:07.539Z,51.80
2018-03-18T14:25:41.348Z,53.50
2018-03-18T14:28:15.567Z,56.50
2018-03-18T14:30:49.777Z,56.50
2018-03-18T14:33:23.401Z,57.50
2018-03-18T14:35:57.802Z,57.30
2018-03-18T14:38:31.204Z,58.10
2018-03-18T14:41:04.493Z,58.30
2018-03-18T14:43:38.197Z,59.40
2018-03-18T14:46:11.796Z,58.80
2018-03-18T14:51:38.665Z,59.50
2018-03-18T14:54:13.903Z,60.30
2018-03-18T14:56:48.729Z,61.30
2018-03-18T14:59:23.568Z,61.60
2018-03-18T15:01:58.390Z,61.00
2018-03-18T15:04:34.658Z,60.70
2018-03-18T15:07:10.100Z,60.70
2018-03-18T15:09:45.142Z,60.90
2018-03-18T15:12:19.964Z,61.10
2018-03-18T15:14:54.998Z,60.30
2018-03-18T15:17:31.263Z,63.40
2018-03-18T15:20:06.716Z,63.40
2018-03-18T15:22:42.357Z,63.80
2018-03-18T15:25:17.804Z,64.30
2018-03-18T15:27:53.042Z,64.80
2018-03-18T15:30:27.874Z,65.80
2018-03-18T15:33:02.907Z,66.50
2018-03-18T15:35:37.944Z,67.10
2018-03-18T15:38:12.773Z,66.90
2018-03-18T15:40:48.423Z,67.50
2018-03-18T15:43:23.457Z,68.10
2018-03-18T15:45:58.494Z,68.80
2018-03-18T15:48:33.733Z,71.60
2018-03-18T15:51:08.875Z,72.40
2018-03-18T15:53:43.721Z,72.90
2018-03-18T15:56:18.942Z,73.60
2018-03-18T15:58:54.183Z,73.20
2018-03-18T16:01:29.624Z,73.80
2018-03-18T16:04:04.659Z,73.90
2018-03-18T16:06:40.312Z,71.80
2018-03-18T16:12:20.286Z,69.80
2018-03-18T16:14:55.725Z,69.70
2018-03-18T16:17:30.762Z,70.90
2018-03-18T16:20:05.798Z,71.90
2018-03-18T16:22:40.627Z,73.00
2018-03-18T16:25:15.671Z,73.80
2018-03-18T16:27:50.497Z,74.40
2018-03-18T16:30:37.612Z,73.80
2018-03-18T16:33:13.065Z,71.60
2018-03-18T16:35:48.298Z,72.00
2018-03-18T16:38:23.542Z,70.60
2018-03-18T16:40:58.536Z,70.30
2018-03-18T16:43:33.811Z,70.80
2018-03-18T16:46:08.845Z,71.10
2018-03-18T16:48:43.637Z,71.80
2018-03-18T16:51:18.917Z,71.10
2018-03-18T16:53:54.361Z,72.40
2018-03-18T16:56:30.120Z,73.30
2018-03-18T16:59:05.148Z,74.20
2018-03-18T17:01:39.981Z,75.80
2018-03-18T17:04:15.221Z,76.50
2018-03-18T17:06:50.465Z,77.10
2018-03-18T17:09:25.289Z,77.00
2018-03-18T17:12:01.006Z,78.60
2018-03-18T17:14:35.765Z,79.80
2018-03-18T17:17:10.805Z,79.30
2018-03-18T17:19:46.451Z,81.00
2018-03-18T17:22:21.180Z,79.40
2018-03-18T17:24:56.422Z,80.20
2018-03-18T17:27:31.249Z,81.60
2018-03-18T17:30:06.186Z,79.30
2018-03-18T17:32:41.221Z,75.60
2018-03-18T17:35:17.012Z,77.30
2018-03-18T17:37:52.660Z,76.90
2018-03-18T17:40:28.386Z,78.10
2018-03-18T17:43:03.405Z,78.10
2018-03-18T17:45:50.933Z,76.70
2018-03-18T17:48:37.649Z,76.10
2018-03-18T17:54:25.400Z,76.60
2018-03-18T17:57:00.436Z,77.30
2018-03-18T17:59:36.287Z,77.10
2018-03-18T18:02:11.730Z,77.40
2018-03-18T18:04:46.976Z,77.70
2018-03-18T18:07:22.415Z,77.40
2018-03-18T18:09:58.064Z,76.70
2018-03-18T18:12:33.208Z,75.40
2018-03-18T18:15:08.854Z,74.50
2018-03-18T18:17:44.502Z,74.90
2018-03-18T18:20:19.340Z,74.20
2018-03-18T18:22:54.263Z,70.20
2018-03-18T18:25:29.591Z,70.40
2018-03-18T18:28:05.155Z,72.10
2018-03-18T18:30:39.982Z,71.50
2018-03-18T18:33:15.021Z,72.10
2018-03-18T18:35:50.007Z,71.60
2018-03-18T18:38:24.886Z,67.50
2018-03-18T18:41:00.536Z,66.10
2018-03-18T18:43:35.774Z,66.00
2018-03-18T18:46:11.424Z,63.80
2018-03-18T18:48:46.871Z,63.50
2018-03-18T18:51:23.336Z,63.10
2018-03-18T18:53:58.373Z,63.10
2018-03-18T18:56:33.961Z,64.90
2018-03-18T18:59:09.671Z,66.60
2018-03-18T19:01:44.711Z,68.30
2018-03-18T19:04:20.357Z,69.30
2018-03-18T19:06:55.292Z,70.30
2018-03-18T19:09:31.758Z,72.20
2018-03-18T19:12:07.620Z,72.70
2018-03-18T19:14:42.850Z,72.70
2018-03-18T19:17:17.800Z,72.90
2018-03-18T19:19:53.537Z,72.20
2018-03-18T19:22:30.010Z,73.60
2018-03-18T19:25:05.243Z,73.50
2018-03-18T19:27:40.688Z,74.20
2018-03-18T19:30:16.547Z,75.20
2018-03-18T19:32:51.986Z,75.00
2018-03-18T19:35:27.174Z,76.30
2018-03-18T19:38:02.671Z,76.10
2018-03-18T19:40:37.710Z,76.60
2018-03-18T19:43:13.153Z,76.70
2018-03-18T19:45:47.982Z,76.70
2018-03-18T19:48:22.819Z,76.60
2018-03-18T19:50:57.643Z,75.90
2018-03-18T19:53:33.291Z,75.80
2018-03-18T19:56:08.122Z,75.80
2018-03-18T19:58:42.956Z,76.30
2018-03-18T20:01:17.682Z,76.60
2018-03-18T20:03:52.617Z,77.00
2018-03-18T20:06:27.448Z,77.50
2018-03-18T20:09:03.230Z,77.70
2018-03-18T20:11:38.765Z,77.90
2018-03-18T20:14:14.401Z,77.80
2018-03-18T20:16:50.043Z,77.30
2018-03-18T20:19:25.077Z,77.30
2018-03-18T20:22:00.319Z,76.80
2018-03-18T20:24:36.174Z,76.90
2018-03-18T20:27:12.205Z,76.40
2018-03-18T20:29:47.885Z,76.30
2018-03-18T20:32:23.735Z,76.50
2018-03-18T20:34:58.976Z,76.80
2018-03-18T20:37:34.010Z,77.20
2018-03-18T20:40:09.044Z,76.70
2018-03-18T20:42:43.978Z,76.80
2018-03-18T20:45:19.838Z,76.70
2018-03-18T20:54:48.164Z,76.40
2018-03-18T20:57:23.196Z,76.30
2018-03-18T20:59:58.850Z,76.30
2018-03-18T21:02:34.498Z,76.50
2018-03-18T21:05:09.625Z,76.70
2018-03-18T21:07:44.968Z,76.60
2018-03-18T21:10:20.839Z,76.90
2018-03-18T21:12:56.619Z,77.00
2018-03-18T21:15:32.122Z,77.00
2018-03-18T21:18:07.772Z,77.00
2018-03-18T21:20:43.451Z,76.90
2018-03-18T21:23:19.287Z,77.30
2018-03-18T21:25:55.130Z,77.90
2018-03-18T21:28:30.573Z,77.40
2018-03-18T21:31:05.545Z,77.50
2018-03-18T21:33:41.270Z,77.70
2018-03-18T21:36:17.531Z,77.50
2018-03-18T21:38:52.563Z,77.50
2018-03-18T21:41:28.211Z,77.60
2018-03-18T21:44:04.260Z,77.00
2018-03-18T21:46:40.139Z,76.80
2018-03-18T21:49:15.775Z,77.00
2018-03-18T21:51:50.605Z,77.50
2018-03-18T21:54:25.450Z,77.70
2018-03-18T21:57:01.100Z,77.80
2018-03-18T21:59:36.669Z,78.30
2018-03-18T22:02:13.161Z,78.70
2018-03-18T22:04:48.855Z,78.90
2018-03-18T22:07:24.614Z,78.90
2018-03-18T22:09:59.740Z,79.30
2018-03-18T22:12:35.058Z,79.50
2018-03-18T22:15:11.712Z,79.40
2018-03-18T22:17:46.774Z,79.30
2018-03-18T22:20:22.107Z,79.30
2018-03-18T22:22:57.681Z,79.30
2018-03-18T22:25:32.714Z,78.90
2018-03-18T22:28:08.580Z,79.00
2018-03-18T22:30:44.020Z,79.10
2018-03-18T22:33:19.664Z,79.00
2018-03-18T22:35:55.314Z,78.60
2018-03-18T22:38:30.143Z,78.90
2018-03-18T22:41:05.792Z,79.10
2018-03-18T22:43:41.442Z,79.50
2018-03-18T22:46:16.884Z,79.70
2018-03-18T22:48:52.125Z,79.10
2018-03-18T22:51:27.850Z,78.80
2018-03-18T22:54:03.442Z,79.10
2018-03-18T22:56:39.076Z,79.60
2018-03-18T22:59:14.731Z,80.40
2018-03-18T23:01:50.378Z,79.80
2018-03-18T23:04:25.823Z,79.70
2018-03-18T23:07:01.466Z,79.70
2018-03-18T23:09:37.059Z,79.80
2018-03-18T23:12:12.562Z,79.70
2018-03-18T23:14:48.434Z,79.80
2018-03-18T23:17:24.286Z,80.10
2018-03-18T23:20:00.741Z,80.90
2018-03-18T23:22:35.783Z,80.90
2018-03-18T23:25:11.115Z,81.70
2018-03-18T23:27:45.946Z,82.40
2018-03-18T23:30:21.553Z,82.70
2018-03-18T23:32:56.325Z,83.00
2018-03-18T23:35:33.610Z,83.50
2018-03-18T23:38:08.855Z,83.40
2018-03-18T23:40:44.500Z,83.20
2018-03-18T23:43:20.357Z,83.20
2018-03-18T23:45:55.801Z,83.10
2018-03-18T23:48:31.589Z,83.10
2018-03-18T23:51:06.893Z,82.80
2018-03-18T23:53:43.065Z,83.30
2018-03-18T23:56:18.195Z,83.10
2018-03-18T23:58:53.655Z,83.10
